TimeEDT,TemperatureF,Dew PointF,Humidity,Sea Level PressureIn,VisibilityMPH,Wind Direction,Wind SpeedMPH,Gust SpeedMPH,PrecipitationIn,Events,Conditions,WindDirDegrees,DateUTC
12:53 AM,61.0,59.0,93,30.00,2.5,WSW,9.2,-,0.06,Rain,Heavy Rain,250,2012-10-05 04:53:00
1:03 AM,60.8,59.0,94,30.01,5.0,WSW,10.4,17.3,0.01,Rain,Light Rain,240,2012-10-05 05:03:00
1:44 AM,60.8,59.0,94,30.01,6.0,WSW,11.5,-,0.06,Rain,Rain,240,2012-10-05 05:44:00
1:53 AM,60.1,59.0,96,30.00,10.0,WSW,9.2,-,0.06,Rain,Light Rain,240,2012-10-05 05:53:00
2:24 AM,60.8,57.2,88,30.01,10.0,West,13.8,19.6,N/A,,Overcast,270,2012-10-05 06:24:00
2:38 AM,60.8,57.2,88,30.01,10.0,West,12.7,24.2,N/A,,Overcast,270,2012-10-05 06:38:00
2:53 AM,57.9,53.1,84,30.00,10.0,West,18.4,26.5,0.01,,Overcast,280,2012-10-05 06:53:00
3:19 AM,57.2,51.8,82,30.01,10.0,West,11.5,-,N/A,,Overcast,260,2012-10-05 07:19:00
3:53 AM,55.9,52.0,87,30.00,10.0,West,9.2,-,N/A,,Overcast,260,2012-10-05 07:53:00
4:20 AM,55.4,51.8,88,30.00,10.0,West,10.4,-,N/A,,Overcast,260,2012-10-05 08:20:00
4:53 AM,55.9,52.0,87,30.00,10.0,WSW,9.2,-,N/A,,Overcast,250,2012-10-05 08:53:00
5:04 AM,55.4,51.8,88,30.03,10.0,WSW,12.7,-,N/A,,Overcast,250,2012-10-05 09:04:00
5:47 AM,53.6,50.0,88,30.03,10.0,West,8.1,-,0.00,,Mostly Cloudy,260,2012-10-05 09:47:00
5:53 AM,54.0,50.0,86,30.02,10.0,West,11.5,-,0.00,,Mostly Cloudy,260,2012-10-05 09:53:00
6:53 AM,53.1,48.0,83,30.03,10.0,West,9.2,-,N/A,,Mostly Cloudy,270,2012-10-05 10:53:00
7:48 AM,51.8,46.4,82,30.05,10.0,West,8.1,-,N/A,,Mostly Cloudy,260,2012-10-05 11:48:00
7:53 AM,52.0,46.0,80,30.04,10.0,West,10.4,-,N/A,,Mostly Cloudy,260,2012-10-05 11:53:00
8:27 AM,51.8,46.4,82,30.04,10.0,West,6.9,-,N/A,,Mostly Cloudy,280,2012-10-05 12:27:00
8:53 AM,52.0,45.0,77,30.06,10.0,West,12.7,-,N/A,,Mostly Cloudy,270,2012-10-05 12:53:00
9:01 AM,51.8,44.6,76,30.06,10.0,West,12.7,-,N/A,,Mostly Cloudy,280,2012-10-05 13:01:00
9:53 AM,52.0,43.0,71,30.05,10.0,WSW,11.5,-,N/A,,Mostly Cloudy,250,2012-10-05 13:53:00
10:53 AM,52.0,42.1,69,30.05,10.0,WSW,11.5,-,N/A,,Mostly Cloudy,250,2012-10-05 14:53:00
11:53 AM,53.1,43.0,69,30.04,10.0,West,10.4,-,N/A,,Mostly Cloudy,260,2012-10-05 15:53:00
12:53 PM,54.0,42.1,64,30.03,10.0,WSW,10.4,-,N/A,,Overcast,250,2012-10-05 16:53:00
1:53 PM,55.0,42.1,62,30.03,10.0,SW,10.4,-,N/A,,Overcast,230,2012-10-05 17:53:00
2:53 PM,55.9,41.0,57,30.00,10.0,WSW,11.5,-,N/A,,Overcast,250,2012-10-05 18:53:00
3:53 PM,55.0,39.0,55,29.99,10.0,WSW,11.5,-,N/A,,Overcast,250,2012-10-05 19:53:00
4:53 PM,54.0,43.0,66,29.97,10.0,WSW,8.1,-,0.00,Rain,Light Rain,240,2012-10-05 20:53:00
5:53 PM,50.0,44.1,80,29.98,10.0,WSW,6.9,-,0.02,Rain,Light Rain,240,2012-10-05 21:53:00
6:53 PM,48.0,44.1,86,29.98,10.0,WSW,9.2,-,0.02,,Overcast,240,2012-10-05 22:53:00
7:53 PM,46.0,39.9,79,29.99,10.0,SW,8.1,-,0.00,Rain,Light Rain,230,2012-10-05 23:53:00
8:53 PM,46.0,42.1,86,29.99,10.0,WSW,10.4,-,0.00,Rain,Light Rain,250,2012-10-06 00:53:00
9:53 PM,45.0,43.0,93,29.97,7.0,WSW,8.1,-,0.05,Rain,Light Rain,250,2012-10-06 01:53:00
10:53 PM,45.0,43.0,93,29.96,10.0,SW,5.8,-,0.00,Rain,Light Rain,230,2012-10-06 02:53:00
11:53 PM,45.0,43.0,93,29.95,10.0,SW,8.1,-,0.00,,Overcast,230,2012-10-06 03:53:00